Time;durP1;ratioP1;P1;durP2;ratioP2;P2;SDS_P1;SDS_P2;PMS_P1;PMS_P2;Temp;Humidity;BMP_temperature;BMP_pressure;BME280_temperature;BME280_humidity;BME280_pressure;Samples;Min_cycle;Max_cycle;Signal;HPM_P1;HPM_P2
2022/03/28 00:00:07;;;;;;;27.33;12.07;;;7.20;71.60;;;;;;6114732;23;20544;-65
2022/03/28 00:02:40;;;;;;;28.98;11.30;;;7.30;71.50;;;;;;6112040;23;20045;-65
2022/03/28 00:05:11;;;;;;;30.58;11.07;;;7.20;72.10;;;;;;6115710;23;20065;-65
2022/03/28 00:07:38;;;;;;;28.77;11.13;;;7.20;71.60;;;;;;6117990;23;20647;-65
2022/03/28 00:10:06;;;;;;;31.35;10.15;;;7.20;71.50;;;;;;6119553;23;20018;-65
2022/03/28 00:12:34;;;;;;;28.15;10.77;;;7.10;71.60;;;;;;6136381;23;20088;-65
2022/03/28 00:15:02;;;;;;;23.85;10.98;;;7.10;71.80;;;;;;6113283;23;20084;-65
2022/03/28 00:17:31;;;;;;;26.27;9.68;;;7.10;71.70;;;;;;6114635;23;20056;-65
2022/03/28 00:20:02;;;;;;;25.45;10.20;;;7.10;71.60;;;;;;6116889;23;20021;-65
2022/03/28 00:22:29;;;;;;;30.48;11.20;;;7.10;71.80;;;;;;6135285;23;20030;-65
2022/03/28 00:24:56;;;;;;;24.55;9.40;;;7.00;71.90;;;;;;6111556;23;20022;-65
2022/03/28 00:27:23;;;;;;;24.52;10.27;;;6.90;72.00;;;;;;6112078;23;20022;-65
2022/03/28 00:29:50;;;;;;;20.55;9.23;;;6.90;72.10;;;;;;6112847;23;20076;-65
2022/03/28 00:32:17;;;;;;;21.08;9.05;;;6.80;72.10;;;;;;6089311;23;20017;-65
2022/03/28 00:34:45;;;;;;;21.55;8.98;;;6.80;72.10;;;;;;6114478;23;20026;-65
2022/03/28 00:37:12;;;;;;;21.33;8.50;;;6.70;72.10;;;;;;6113063;23;20421;-65
2022/03/28 00:39:38;;;;;;;21.60;8.40;;;6.70;72.10;;;;;;6116209;23;20029;-65
2022/03/28 00:42:06;;;;;;;17.13;8.15;;;6.80;72.00;;;;;;6116763;23;20504;-65
2022/03/28 00:44:34;;;;;;;22.63;8.23;;;6.70;72.00;;;;;;6113868;23;20041;-65
2022/03/28 00:47:00;;;;;;;24.55;8.13;;;6.70;72.10;;;;;;6114228;23;20045;-65
2022/03/28 00:49:28;;;;;;;19.35;8.45;;;6.70;72.40;;;;;;6137079;23;20292;-65
2022/03/28 00:51:55;;;;;;;24.13;9.27;;;6.60;72.60;;;;;;6141078;23;20056;-65
2022/03/28 00:54:22;;;;;;;19.27;8.00;;;6.60;72.60;;;;;;6119327;23;20026;-65
2022/03/28 00:56:50;;;;;;;18.83;8.07;;;6.50;72.60;;;;;;6119460;23;20022;-65
2022/03/28 00:59:18;;;;;;;18.75;7.93;;;6.50;72.30;;;;;;6115953;23;20018;-65
2022/03/28 01:01:46;;;;;;;18.67;8.55;;;6.50;72.40;;;;;;6111396;23;20033;-65
2022/03/28 01:04:13;;;;;;;22.27;9.05;;;6.50;72.40;;;;;;6117138;23;20022;-65
2022/03/28 01:06:40;;;;;;;21.98;8.27;;;6.50;72.40;;;;;;6117157;23;20101;-65
2022/03/28 01:09:07;;;;;;;21.50;9.00;;;6.40;72.40;;;;;;6117910;23;20049;-65
2022/03/28 01:11:34;;;;;;;20.95;8.85;;;6.40;72.70;;;;;;6113744;23;20018;-65
2022/03/28 01:14:01;;;;;;;23.25;9.63;;;6.40;72.70;;;;;;6113920;23;20033;-65
2022/03/28 01:19:18;;;;;;;20.75;8.90;;;6.20;72.90;;;;;;6114026;23;20716;-65
2022/03/28 01:21:45;;;;;;;18.67;8.30;;;6.20;72.80;;;;;;6111630;23;20017;-65
2022/03/28 01:24:12;;;;;;;20.40;8.80;;;6.20;72.80;;;;;;6112795;23;20117;-65
2022/03/28 01:26:39;;;;;;;22.63;9.13;;;6.20;72.60;;;;;;6136318;23;20467;-65
2022/03/28 01:29:07;;;;;;;19.25;8.30;;;6.20;72.40;;;;;;6113994;23;20753;-65
2022/03/28 01:31:41;;;;;;;19.30;8.00;;;6.20;73.00;;;;;;6141849;23;20046;-65
2022/03/28 01:34:16;;;;;;;22.85;8.88;;;6.00;73.20;;;;;;6117742;23;20496;-65
2022/03/28 01:36:47;;;;;;;19.23;8.95;;;6.10;73.00;;;;;;6141962;23;20041;-65
2022/03/28 01:39:15;;;;;;;20.63;8.63;;;6.00;73.00;;;;;;6143866;23;20018;-65
2022/03/28 01:41:43;;;;;;;19.98;9.00;;;6.00;73.30;;;;;;6115277;23;20052;-65
2022/03/28 01:44:10;;;;;;;23.35;9.15;;;6.00;72.90;;;;;;6137838;23;20029;-65
2022/03/28 01:46:46;;;;;;;21.88;8.75;;;6.00;73.30;;;;;;6120515;23;20093;-65
2022/03/28 01:49:16;;;;;;;26.27;10.00;;;5.90;73.20;;;;;;6120746;23;20072;-65
2022/03/28 01:51:44;;;;;;;24.17;9.13;;;5.90;73.40;;;;;;6143045;23;20033;-65
2022/03/28 01:54:12;;;;;;;23.17;9.05;;;5.90;73.40;;;;;;6143158;23;20053;-65
2022/03/28 01:56:39;;;;;;;25.13;9.77;;;5.80;73.40;;;;;;6118292;23;20068;-65
2022/03/28 01:59:08;;;;;;;22.00;9.00;;;5.80;73.20;;;;;;6138622;23;20028;-65
2022/03/28 02:01:36;;;;;;;20.83;8.70;;;5.80;73.00;;;;;;6115912;23;20022;-65
2022/03/28 02:04:04;;;;;;;23.38;9.20;;;5.80;73.20;;;;;;6113612;23;20057;-65
2022/03/28 02:06:34;;;;;;;19.95;8.32;;;5.80;73.10;;;;;;6141476;23;20022;-65
2022/03/28 02:09:02;;;;;;;22.75;8.77;;;5.70;73.10;;;;;;6142426;23;20022;-65
2022/03/28 02:11:30;;;;;;;19.50;8.77;;;5.70;73.20;;;;;;6144886;23;20022;-65
2022/03/28 02:13:57;;;;;;;19.40;8.02;;;5.70;73.10;;;;;;6118356;23;20021;-65
2022/03/28 02:16:24;;;;;;;20.88;8.48;;;5.60;72.80;;;;;;6115840;23;20162;-65
2022/03/28 02:18:51;;;;;;;18.52;7.90;;;5.50;72.60;;;;;;6116706;23;20088;-65
2022/03/28 02:21:18;;;;;;;17.65;7.95;;;5.50;73.10;;;;;;6120468;23;20026;-65
2022/03/28 02:23:45;;;;;;;16.45;7.78;;;5.60;72.90;;;;;;6118184;23;20049;-65
2022/03/28 02:26:14;;;;;;;20.10;7.72;;;5.50;72.90;;;;;;6113918;23;20053;-65
2022/03/28 02:28:41;;;;;;;20.00;7.07;;;5.50;73.00;;;;;;6117104;23;20434;-65
2022/03/28 02:31:10;;;;;;;21.40;7.63;;;5.50;73.20;;;;;;6118776;23;20018;-65
2022/03/28 02:33:37;;;;;;;13.98;6.63;;;5.50;73.20;;;;;;6118917;23;20105;-65
2022/03/28 02:36:05;;;;;;;15.90;7.15;;;5.50;72.70;;;;;;6120456;23;20022;-65
2022/03/28 02:38:32;;;;;;;22.98;8.05;;;5.40;72.60;;;;;;6119030;23;20338;-65
2022/03/28 02:41:00;;;;;;;18.02;7.75;;;5.40;72.80;;;;;;6118096;23;20142;-65
2022/03/28 02:43:27;;;;;;;16.13;7.55;;;5.40;72.80;;;;;;6112526;23;20373;-65
2022/03/28 02:45:54;;;;;;;19.05;8.13;;;5.40;72.40;;;;;;6137085;23;20048;-65
2022/03/28 02:48:21;;;;;;;21.88;7.80;;;5.40;72.60;;;;;;6115864;23;20025;-65
2022/03/28 02:50:49;;;;;;;19.40;8.27;;;5.30;72.80;;;;;;6115718;23;20018;-65
2022/03/28 02:53:16;;;;;;;19.02;7.50;;;5.30;72.90;;;;;;6113992;23;20073;-65
2022/03/28 02:55:43;;;;;;;19.40;7.80;;;5.30;72.60;;;;;;6118821;23;20021;-65
2022/03/28 02:58:10;;;;;;;18.60;7.72;;;5.30;72.50;;;;;;6120522;23;20021;-64
2022/03/28 03:00:37;;;;;;;20.70;6.95;;;5.20;72.70;;;;;;6121332;23;20484;-64
2022/03/28 03:03:04;;;;;;;20.70;7.93;;;5.20;72.50;;;;;;6119527;23;20025;-65
2022/03/28 03:05:32;;;;;;;17.40;7.40;;;5.20;72.40;;;;;;6116885;23;20113;-65
2022/03/28 03:07:59;;;;;;;20.15;7.53;;;5.20;72.40;;;;;;6088063;23;20022;-65
2022/03/28 03:10:26;;;;;;;18.20;6.78;;;5.10;72.30;;;;;;6114536;23;20047;-65
2022/03/28 03:12:53;;;;;;;24.00;8.52;;;5.10;72.70;;;;;;6112656;23;20021;-65
2022/03/28 03:15:20;;;;;;;31.20;14.43;;;5.10;72.50;;;;;;6141313;23;20026;-65
2022/03/28 03:17:48;;;;;;;28.23;12.80;;;5.00;72.30;;;;;;6114425;23;20029;-65
2022/03/28 03:20:15;;;;;;;28.00;14.70;;;5.00;72.90;;;;;;6136650;23;20378;-65
2022/03/28 03:22:45;;;;;;;34.47;15.70;;;5.00;72.60;;;;;;6117252;23;20080;-65
2022/03/28 03:25:12;;;;;;;30.40;15.77;;;4.90;72.30;;;;;;6117591;23;20018;-65
2022/03/28 03:27:39;;;;;;;39.05;15.57;;;4.90;71.90;;;;;;6113525;23;20022;-65
2022/03/28 03:30:10;;;;;;;40.53;17.92;;;4.90;72.40;;;;;;6114602;23;20061;-65
2022/03/28 03:32:37;;;;;;;46.40;19.40;;;4.90;72.10;;;;;;6141856;23;20029;-65
2022/03/28 03:35:05;;;;;;;44.97;18.85;;;4.90;72.30;;;;;;6120323;23;20041;-65
2022/03/28 03:37:33;;;;;;;44.30;19.60;;;4.80;71.90;;;;;;6117122;23;20025;-66
2022/03/28 03:40:00;;;;;;;45.53;19.70;;;4.80;72.40;;;;;;6112999;23;20022;-65
2022/03/28 03:42:27;;;;;;;48.75;20.30;;;4.80;72.50;;;;;;6115100;23;20022;-65
2022/03/28 03:44:54;;;;;;;49.40;19.88;;;4.80;72.50;;;;;;6112074;23;20508;-64
2022/03/28 03:47:21;;;;;;;52.13;21.20;;;4.80;72.60;;;;;;6114324;23;20572;-65
2022/03/28 03:49:48;;;;;;;56.65;22.05;;;4.80;72.80;;;;;;6113889;23;20551;-65
2022/03/28 03:52:16;;;;;;;52.15;22.38;;;4.80;72.90;;;;;;6116394;23;20013;-65
2022/03/28 03:54:45;;;;;;;47.75;21.13;;;4.70;73.00;;;;;;6117336;23;20021;-65
2022/03/28 03:57:12;;;;;;;48.72;19.98;;;4.70;73.20;;;;;;6116009;23;20441;-65
2022/03/28 03:59:40;;;;;;;40.88;18.48;;;4.70;73.10;;;;;;6136816;23;20077;-65
2022/03/28 04:02:07;;;;;;;36.85;15.07;;;4.70;72.60;;;;;;6115616;23;20449;-65
2022/03/28 04:04:34;;;;;;;32.40;13.02;;;4.60;72.40;;;;;;6118907;23;20014;-65
2022/03/28 04:07:01;;;;;;;31.70;13.52;;;4.60;72.30;;;;;;6119474;23;20323;-65
2022/03/28 04:09:28;;;;;;;26.65;11.13;;;4.60;72.50;;;;;;6116001;23;20018;-65
2022/03/28 04:11:55;;;;;;;21.20;10.52;;;4.60;72.10;;;;;;6114609;23;20063;-65
2022/03/28 04:14:22;;;;;;;21.50;8.57;;;4.60;72.40;;;;;;6136857;23;20081;-65
2022/03/28 04:16:49;;;;;;;17.02;8.35;;;4.60;71.50;;;;;;6115530;23;20638;-65
2022/03/28 04:19:16;;;;;;;29.40;9.27;;;4.60;71.50;;;;;;6117741;23;20036;-65
2022/03/28 04:21:43;;;;;;;23.73;10.70;;;4.60;71.30;;;;;;6119504;23;20442;-65
2022/03/28 04:24:11;;;;;;;31.58;12.23;;;4.60;71.80;;;;;;6118281;23;20108;-65
2022/03/28 04:26:38;;;;;;;26.10;10.20;;;4.50;71.60;;;;;;6114041;23;20096;-64
2022/03/28 04:29:04;;;;;;;22.90;8.70;;;4.50;71.70;;;;;;6113874;23;20093;-65
2022/03/28 04:31:32;;;;;;;26.58;9.38;;;4.50;71.30;;;;;;6136349;23;20346;-65
2022/03/28 04:33:59;;;;;;;21.10;8.38;;;4.40;72.00;;;;;;6137364;23;20348;-65
2022/03/28 04:36:26;;;;;;;26.92;9.90;;;4.50;71.80;;;;;;6141005;23;20022;-65
2022/03/28 04:38:53;;;;;;;44.72;16.50;;;4.50;71.80;;;;;;6118113;23;20021;-65
2022/03/28 04:41:20;;;;;;;41.85;16.25;;;4.40;71.20;;;;;;6141492;23;20056;-65
2022/03/28 04:43:46;;;;;;;36.95;14.55;;;4.40;72.00;;;;;;6142089;23;20018;-65
2022/03/28 04:46:14;;;;;;;32.05;11.32;;;4.40;71.90;;;;;;6143115;23;20090;-65
2022/03/28 04:48:47;;;;;;;22.30;9.57;;;4.30;71.60;;;;;;6116644;23;20025;-65
2022/03/28 04:51:14;;;;;;;24.75;10.00;;;4.40;71.50;;;;;;6119713;23;20022;-64
2022/03/28 04:53:40;;;;;;;33.00;9.93;;;4.40;71.60;;;;;;6118728;23;20080;-65
2022/03/28 04:56:08;;;;;;;22.17;8.00;;;4.40;71.80;;;;;;6118596;23;20029;-65
2022/03/28 04:58:35;;;;;;;16.20;6.82;;;4.40;71.20;;;;;;6117055;23;20673;-65
2022/03/28 05:01:06;;;;;;;20.60;7.82;;;4.40;70.60;;;;;;6113530;23;20032;-65
2022/03/28 05:03:34;;;;;;;20.27;7.47;;;4.50;71.00;;;;;;6136929;23;20025;-65
2022/03/28 05:06:02;;;;;;;16.92;7.63;;;4.50;71.20;;;;;;6117362;23;20022;-65
2022/03/28 05:08:29;;;;;;;21.25;7.30;;;4.50;71.10;;;;;;6112849;23;20049;-64
2022/03/28 05:10:56;;;;;;;18.35;6.80;;;4.50;70.80;;;;;;6115684;23;20029;-64
2022/03/28 05:13:25;;;;;;;16.80;6.60;;;4.60;70.20;;;;;;6116262;23;20373;-64
2022/03/28 05:15:53;;;;;;;19.95;7.25;;;4.60;69.90;;;;;;6111624;23;20026;-65
2022/03/28 05:18:20;;;;;;;23.67;7.80;;;4.60;70.40;;;;;;6136524;23;20112;-65
2022/03/28 05:20:47;;;;;;;25.50;7.53;;;4.60;69.90;;;;;;6114396;23;20469;-65
2022/03/28 05:23:14;;;;;;;21.80;8.27;;;4.70;70.70;;;;;;6114550;23;20037;-64
2022/03/28 05:25:41;;;;;;;20.70;8.55;;;4.70;69.90;;;;;;6117164;23;20081;-64
2022/03/28 05:28:08;;;;;;;20.98;7.50;;;4.70;68.90;;;;;;6113882;23;20018;-65
2022/03/28 05:30:35;;;;;;;21.67;8.43;;;4.70;68.90;;;;;;6114511;23;20022;-64
2022/03/28 05:33:02;;;;;;;25.08;7.90;;;4.80;69.10;;;;;;6142951;23;20028;-64
2022/03/28 05:35:31;;;;;;;23.95;8.25;;;4.80;68.30;;;;;;6117742;23;20486;-64
2022/03/28 05:37:58;;;;;;;19.95;8.02;;;4.90;67.60;;;;;;6141359;23;20025;-64
2022/03/28 05:40:25;;;;;;;15.65;7.53;;;4.90;67.60;;;;;;6141465;23;20045;-64
2022/03/28 05:42:53;;;;;;;24.55;7.93;;;5.00;67.00;;;;;;6119702;23;20018;-64
2022/03/28 05:45:20;;;;;;;24.42;7.88;;;5.10;67.50;;;;;;6113078;23;20022;-64
2022/03/28 05:47:47;;;;;;;20.50;6.57;;;5.10;66.90;;;;;;6136616;23;20046;-64
2022/03/28 05:50:14;;;;;;;19.15;7.30;;;5.20;67.00;;;;;;6140979;23;20046;-64
2022/03/28 05:52:41;;;;;;;17.38;6.03;;;5.20;66.10;;;;;;6118192;23;20618;-64
2022/03/28 05:55:09;;;;;;;16.17;5.90;;;5.30;65.70;;;;;;6139434;23;20437;-64
2022/03/28 05:57:36;;;;;;;15.18;6.13;;;5.40;65.80;;;;;;6111263;23;20619;-64
2022/03/28 06:00:05;;;;;;;18.25;6.00;;;5.50;65.50;;;;;;6106339;23;20018;-64
2022/03/28 06:02:38;;;;;;;17.52;7.20;;;5.50;64.50;;;;;;6101105;23;20117;-65
2022/03/28 06:05:06;;;;;;;17.05;5.47;;;5.60;64.70;;;;;;6127174;23;20643;-65
2022/03/28 06:07:33;;;;;;;25.10;6.65;;;5.80;64.50;;;;;;6104526;23;20778;-65
2022/03/28 06:10:01;;;;;;;16.55;5.93;;;5.90;64.20;;;;;;6102460;23;20018;-64
2022/03/28 06:12:28;;;;;;;18.48;6.25;;;6.00;63.80;;;;;;6102425;23;20023;-64
2022/03/28 06:14:55;;;;;;;21.17;5.63;;;6.10;63.40;;;;;;6125639;23;20026;-65
2022/03/28 06:17:26;;;;;;;13.50;5.75;;;6.30;62.20;;;;;;6123871;23;20044;-65
2022/03/28 06:19:53;;;;;;;14.48;4.75;;;6.40;62.60;;;;;;6104857;23;20026;-64
2022/03/28 06:22:20;;;;;;;13.52;4.78;;;6.60;61.00;;;;;;6104804;23;20101;-65
2022/03/28 06:24:47;;;;;;;14.63;5.20;;;6.70;60.70;;;;;;6105671;23;20109;-64
2022/03/28 06:27:14;;;;;;;16.38;6.13;;;6.90;60.20;;;;;;6132570;23;20042;-64
2022/03/28 06:29:41;;;;;;;14.18;5.82;;;7.00;60.70;;;;;;6109451;23;20518;-64
2022/03/28 06:32:08;;;;;;;13.57;4.50;;;7.20;59.60;;;;;;6132440;23;20022;-64
2022/03/28 06:34:35;;;;;;;10.85;3.97;;;7.30;59.60;;;;;;6132223;23;20018;-64
2022/03/28 06:37:03;;;;;;;11.68;3.63;;;7.50;58.10;;;;;;6108918;23;20025;-64
2022/03/28 06:39:30;;;;;;;8.35;3.05;;;7.60;57.30;;;;;;6110516;23;20078;-64
2022/03/28 06:41:57;;;;;;;9.05;3.15;;;7.80;57.20;;;;;;6110860;23;20022;-69
2022/03/28 06:44:23;;;;;;;7.90;3.40;;;7.90;56.00;;;;;;6106588;23;20060;-68
2022/03/28 06:46:51;;;;;;;10.27;3.75;;;8.10;55.00;;;;;;6129458;23;20026;-69
2022/03/28 06:49:18;;;;;;;12.73;4.47;;;8.20;54.70;;;;;;6107240;23;20018;-68
2022/03/28 06:51:45;;;;;;;10.32;3.40;;;8.40;53.90;;;;;;6128874;23;20477;-68
2022/03/28 06:54:14;;;;;;;7.80;3.13;;;8.50;53.00;;;;;;6105878;23;20132;-68
2022/03/28 06:56:42;;;;;;;9.10;3.92;;;8.70;52.70;;;;;;6127947;23;20417;-69
2022/03/28 06:59:08;;;;;;;7.47;2.97;;;8.80;52.60;;;;;;6130243;23;20304;-70
2022/03/28 07:01:36;;;;;;;11.45;3.53;;;9.00;52.80;;;;;;6131185;23;20049;-70
2022/03/28 07:04:03;;;;;;;10.48;3.78;;;9.10;50.90;;;;;;6107302;23;20085;-70
2022/03/28 07:06:30;;;;;;;14.75;4.10;;;9.30;51.50;;;;;;6128048;23;20022;-71
2022/03/28 07:08:57;;;;;;;12.85;3.20;;;9.40;50.00;;;;;;6126759;23;20263;-71
2022/03/28 07:11:25;;;;;;;8.38;3.40;;;9.60;50.50;;;;;;6102921;23;20077;-70
2022/03/28 07:13:52;;;;;;;11.93;2.78;;;9.70;49.00;;;;;;6102269;23;20022;-70
2022/03/28 07:16:19;;;;;;;7.82;3.00;;;10.00;50.10;;;;;;6127326;23;20065;-71
2022/03/28 07:18:46;;;;;;;9.00;3.35;;;10.00;46.90;;;;;;6127101;23;20030;-69
2022/03/28 07:21:13;;;;;;;9.75;3.42;;;10.20;46.10;;;;;;6125462;23;20491;-69
2022/03/28 07:23:40;;;;;;;10.02;4.22;;;10.30;45.60;;;;;;6126412;23;20026;-69
2022/03/28 07:26:08;;;;;;;11.50;3.28;;;10.40;46.10;;;;;;6105331;23;20716;-69
2022/03/28 07:28:39;;;;;;;12.55;3.90;;;10.60;47.00;;;;;;6103715;23;20029;-69
2022/03/28 07:31:09;;;;;;;9.23;3.45;;;10.60;46.50;;;;;;6127150;23;20454;-69
2022/03/28 07:33:40;;;;;;;9.75;3.40;;;10.80;45.80;;;;;;6105351;23;20021;-69
2022/03/28 07:36:08;;;;;;;12.27;3.58;;;10.90;46.30;;;;;;6106049;23;20504;-71
2022/03/28 07:38:35;;;;;;;17.65;4.43;;;11.00;44.70;;;;;;6127171;23;20706;-69
2022/03/28 07:41:05;;;;;;;7.38;2.78;;;11.10;45.20;;;;;;6126675;23;20036;-70
2022/03/28 07:43:33;;;;;;;7.18;2.90;;;11.20;43.80;;;;;;6127082;23;20786;-70
2022/03/28 07:46:00;;;;;;;10.13;3.13;;;11.30;45.60;;;;;;6100995;23;20528;-70
2022/03/28 07:48:27;;;;;;;6.53;2.88;;;11.50;45.40;;;;;;6129705;23;20048;-70
2022/03/28 07:50:55;;;;;;;14.95;3.10;;;11.70;43.70;;;;;;6105722;23;20480;-70
2022/03/28 07:53:23;;;;;;;9.82;3.25;;;11.80;45.50;;;;;;6101878;23;20021;-70
2022/03/28 07:55:50;;;;;;;8.55;2.97;;;12.00;45.20;;;;;;6103941;23;20069;-70
2022/03/28 07:58:17;;;;;;;10.65;2.83;;;12.00;44.60;;;;;;6129033;23;20045;-70
2022/03/28 08:00:44;;;;;;;12.82;3.22;;;12.20;42.90;;;;;;6104887;23;20053;-69
2022/03/28 08:03:11;;;;;;;8.45;2.97;;;12.20;42.60;;;;;;6126329;23;20509;-70
2022/03/28 08:05:38;;;;;;;7.20;3.13;;;12.30;43.60;;;;;;6103614;23;20022;-70
2022/03/28 08:08:06;;;;;;;15.93;3.42;;;12.60;43.70;;;;;;6100931;23;20072;-70
2022/03/28 08:10:32;;;;;;;10.15;3.03;;;12.60;42.80;;;;;;6102987;23;20018;-71
2022/03/28 08:13:01;;;;;;;10.73;3.70;;;12.60;41.80;;;;;;6103507;23;20021;-71
2022/03/28 08:15:30;;;;;;;12.90;3.13;;;12.80;43.40;;;;;;6104364;23;20022;-70
2022/03/28 08:18:00;;;;;;;10.73;2.80;;;13.00;43.50;;;;;;6106653;23;20076;-70
2022/03/28 08:20:28;;;;;;;12.00;3.83;;;13.20;43.20;;;;;;6129764;23;20030;-70
2022/03/28 08:22:55;;;;;;;14.43;3.80;;;13.10;42.10;;;;;;6127562;23;20779;-72
2022/03/28 08:25:23;;;;;;;15.32;3.10;;;13.30;44.40;;;;;;6125289;23;20458;-71
2022/03/28 08:27:50;;;;;;;5.75;2.40;;;13.50;43.60;;;;;;6105693;23;20436;-69
2022/03/28 08:30:18;;;;;;;6.30;2.50;;;13.40;43.50;;;;;;6130960;23;20085;-69
2022/03/28 08:32:47;;;;;;;14.85;3.35;;;13.50;44.50;;;;;;6130119;23;20113;-69
2022/03/28 08:35:15;;;;;;;8.88;2.50;;;13.60;43.50;;;;;;6105130;23;20028;-69
2022/03/28 08:37:43;;;;;;;13.65;3.17;;;13.80;43.80;;;;;;6125938;23;20078;-69
2022/03/28 08:40:16;;;;;;;6.78;2.55;;;13.80;43.50;;;;;;6127641;23;20030;-70
2022/03/28 08:42:44;;;;;;;11.57;2.92;;;14.00;44.00;;;;;;6110043;23;20029;-69
2022/03/28 08:45:14;;;;;;;7.38;2.92;;;14.10;44.10;;;;;;6126715;23;20026;-70
2022/03/28 08:47:44;;;;;;;7.82;2.60;;;14.20;43.70;;;;;;6103928;23;20472;-70
2022/03/28 08:50:31;;;;;;;10.88;2.33;;;14.30;43.80;;;;;;6127431;23;20092;-69
2022/03/28 08:52:59;;;;;;;5.30;2.35;;;14.40;44.70;;;;;;6124982;23;20374;-71
2022/03/28 08:55:26;;;;;;;11.02;2.72;;;14.50;44.40;;;;;;6125372;23;20030;-70
2022/03/28 08:57:53;;;;;;;8.77;3.13;;;14.40;42.90;;;;;;6128836;23;20025;-71
2022/03/28 09:00:20;;;;;;;7.38;2.88;;;14.60;43.30;;;;;;6104818;23;20085;-71
2022/03/28 09:02:50;;;;;;;11.18;3.30;;;14.70;42.40;;;;;;6124802;23;20025;-71
2022/03/28 09:05:31;;;;;;;10.98;2.78;;;14.90;44.30;;;;;;6129359;23;20033;-70
2022/03/28 09:07:59;;;;;;;8.23;2.85;;;14.90;45.40;;;;;;6125648;23;20025;-70
2022/03/28 09:10:29;;;;;;;7.03;2.95;;;15.20;45.70;;;;;;6120245;23;20484;-70
2022/03/28 09:13:08;;;;;;;7.05;2.70;;;15.30;44.60;;;;;;6124566;23;20025;-71
2022/03/28 09:15:49;;;;;;;11.00;2.72;;;15.20;44.90;;;;;;6102650;23;20025;-71
2022/03/28 09:18:29;;;;;;;9.13;2.72;;;15.40;45.80;;;;;;6125634;23;20453;-70
2022/03/28 09:21:07;;;;;;;9.68;2.42;;;15.40;47.80;;;;;;6126899;23;20389;-72
2022/03/28 09:23:44;;;;;;;7.35;2.60;;;15.50;46.00;;;;;;6128690;23;20139;-71
2022/03/28 09:26:13;;;;;;;6.88;2.88;;;15.70;46.40;;;;;;6131505;23;20032;-72
2022/03/28 09:29:03;;;;;;;7.60;3.10;;;15.80;46.40;;;;;;6108982;23;20076;-70
2022/03/28 09:31:31;;;;;;;7.45;3.28;;;16.00;48.70;;;;;;6107613;23;20350;-72
2022/03/28 09:34:13;;;;;;;7.15;3.10;;;16.10;45.80;;;;;;6129945;23;20021;-70
2022/03/28 09:36:50;;;;;;;11.30;3.38;;;16.10;47.20;;;;;;6101645;23;20030;-71
2022/03/28 09:39:19;;;;;;;9.43;3.92;;;16.30;47.30;;;;;;6127532;23;20402;-71
2022/03/28 09:42:19;;;;;;;9.85;3.13;;;16.40;46.70;;;;;;6107209;23;20026;-70
2022/03/28 09:44:50;;;;;;;7.18;3.55;;;16.30;45.90;;;;;;6042878;23;20034;-71
2022/03/28 09:47:23;;;;;;;10.00;3.78;;;16.70;46.80;;;;;;6105740;23;20108;-70
2022/03/28 09:49:57;;;;;;;8.18;3.47;;;16.80;46.50;;;;;;6108890;23;20061;-72
2022/03/28 09:52:28;;;;;;;8.13;3.40;;;16.80;47.40;;;;;;6128467;23;20394;-70
2022/03/28 09:54:58;;;;;;;7.72;2.78;;;16.80;47.30;;;;;;6103965;23;20356;-71
2022/03/28 09:57:33;;;;;;;7.28;3.08;;;16.80;47.40;;;;;;6105842;23;20730;-71
2022/03/28 10:00:12;;;;;;;9.23;2.92;;;16.90;46.00;;;;;;6106158;23;20026;-71
2022/03/28 10:02:40;;;;;;;12.95;3.28;;;16.90;46.50;;;;;;6129756;23;20033;-71
2022/03/28 10:05:08;;;;;;;11.05;3.78;;;17.10;46.50;;;;;;6131976;23;20026;-70
2022/03/28 10:07:35;;;;;;;6.88;3.15;;;17.10;46.50;;;;;;6108080;23;20330;-71
2022/03/28 10:10:03;;;;;;;13.18;4.07;;;17.10;46.40;;;;;;6102226;23;20081;-71
2022/03/28 10:12:30;;;;;;;9.38;3.13;;;17.20;48.10;;;;;;6130562;23;20376;-71
2022/03/28 10:14:58;;;;;;;9.93;3.35;;;17.40;46.60;;;;;;6109517;23;20022;-71
2022/03/28 10:17:28;;;;;;;9.45;3.83;;;17.50;46.60;;;;;;6129693;23;20120;-71
2022/03/28 10:19:56;;;;;;;14.95;4.07;;;17.50;46.90;;;;;;6105750;23;20254;-70
2022/03/28 10:22:29;;;;;;;7.93;3.75;;;17.70;46.60;;;;;;6128971;23;20084;-71
2022/03/28 10:25:02;;;;;;;10.23;3.83;;;17.70;45.60;;;;;;6109492;23;20033;-72
2022/03/28 10:27:31;;;;;;;7.82;3.58;;;17.60;47.10;;;;;;6130802;23;20022;-70
2022/03/28 10:30:17;;;;;;;13.18;3.88;;;17.70;48.00;;;;;;6131632;23;20028;-72
2022/03/28 10:32:44;;;;;;;11.73;3.97;;;17.70;47.70;;;;;;6129322;23;20032;-72
2022/03/28 10:35:13;;;;;;;10.55;3.92;;;17.90;47.90;;;;;;6110448;23;20073;-70
2022/03/28 10:37:45;;;;;;;8.18;3.40;;;18.00;46.90;;;;;;6108963;23;20026;-70
2022/03/28 10:40:15;;;;;;;;;;;17.80;46.10;;;;;;6107916;23;20780;-72
2022/03/28 10:43:00;;;;;;;10.75;4.07;;;17.90;46.70;;;;;;6134739;23;19927;-71
2022/03/28 10:45:33;;;;;;;8.15;3.28;;;17.90;45.60;;;;;;6128605;23;20026;-71
2022/03/28 10:48:01;;;;;;;9.18;3.60;;;18.10;46.50;;;;;;6131795;23;20032;-72
2022/03/28 10:50:30;;;;;;;13.45;3.72;;;18.20;46.40;;;;;;6130730;23;20291;-72
2022/03/28 10:53:14;;;;;;;7.00;3.55;;;18.30;45.50;;;;;;6133784;23;20025;-71
2022/03/28 10:55:53;;;;;;;15.63;4.80;;;18.10;45.10;;;;;;6132735;23;20029;-72
2022/03/28 10:58:22;;;;;;;8.32;3.92;;;18.30;45.80;;;;;;6107025;23;20088;-72
2022/03/28 11:01:07;;;;;;;8.00;3.92;;;18.40;45.30;;;;;;6131825;23;20032;-71
2022/03/28 11:03:42;;;;;;;7.72;3.72;;;18.60;45.90;;;;;;6134514;23;20030;-72
2022/03/28 11:06:11;;;;;;;8.73;4.35;;;18.60;45.60;;;;;;6130198;23;20073;-72
2022/03/28 11:08:47;;;;;;;11.00;4.53;;;18.90;45.50;;;;;;6110264;23;20022;-72
2022/03/28 11:11:23;;;;;;;11.88;4.30;;;18.50;44.60;;;;;;6130662;23;20049;-74
2022/03/28 11:14:16;;;;;;;11.15;4.95;;;18.60;45.50;;;;;;6138292;23;20032;-73
2022/03/28 11:16:53;;;;;;;11.07;4.25;;;19.00;45.20;;;;;;6108322;23;20036;-73
2022/03/28 11:19:33;;;;;;;14.52;4.93;;;18.80;45.00;;;;;;6137265;23;20021;-73
2022/03/28 11:22:03;;;;;;;10.80;4.95;;;18.90;44.90;;;;;;6134001;23;20033;-72
2022/03/28 11:24:51;;;;;;;10.70;5.10;;;18.90;44.80;;;;;;6108757;23;20192;-73
2022/03/28 11:27:21;;;;;;;14.00;5.32;;;19.00;45.30;;;;;;6133886;23;20026;-72
2022/03/28 11:29:49;;;;;;;10.77;5.85;;;19.10;44.80;;;;;;6106594;23;20401;-74
2022/03/28 11:32:19;;;;;;;10.43;4.55;;;19.10;44.20;;;;;;6134488;23;20360;-75
2022/03/28 11:34:52;;;;;;;9.70;5.25;;;19.10;44.80;;;;;;6107734;23;20551;-71
2022/03/28 11:37:23;;;;;;;8.18;4.65;;;19.20;44.80;;;;;;6136719;23;20096;-72
2022/03/28 11:40:03;;;;;;;12.10;5.22;;;19.20;44.50;;;;;;6107767;23;20022;-71
2022/03/28 11:42:32;;;;;;;9.35;3.95;;;19.40;45.30;;;;;;6132693;23;20026;-73
2022/03/28 11:45:10;;;;;;;8.65;4.22;;;19.40;45.30;;;;;;6130578;23;20025;-73
2022/03/28 11:47:48;;;;;;;7.65;3.15;;;19.30;44.40;;;;;;6103368;23;20033;-72
2022/03/28 11:50:16;;;;;;;8.50;3.92;;;19.50;45.20;;;;;;6128406;23;20539;-72
2022/03/28 11:52:52;;;;;;;9.98;3.42;;;19.60;44.70;;;;;;6103658;23;20730;-72
2022/03/28 11:55:25;;;;;;;9.27;3.78;;;19.70;44.60;;;;;;6131956;23;20049;-73
2022/03/28 12:00:40;;;;;;;9.05;3.72;;;19.80;43.80;;;;;;6130905;23;20030;-74
2022/03/28 12:03:12;;;;;;;4.82;2.92;;;19.80;44.80;;;;;;6131877;23;20032;-71
2022/03/28 12:05:47;;;;;;;11.07;3.03;;;19.70;44.90;;;;;;6126870;23;20045;-72
2022/03/28 12:08:17;;;;;;;5.90;2.97;;;20.00;44.60;;;;;;6106447;23;20413;-72
2022/03/28 12:10:51;;;;;;;7.68;2.83;;;20.00;44.70;;;;;;6104047;23;20027;-70
2022/03/28 12:13:21;;;;;;;8.55;3.08;;;20.10;44.50;;;;;;6131064;23;20402;-72
2022/03/28 12:15:51;;;;;;;8.93;3.10;;;20.10;44.40;;;;;;6133813;23;20021;-73
2022/03/28 12:18:20;;;;;;;8.30;3.38;;;20.00;44.40;;;;;;6106695;23;20025;-72
2022/03/28 12:20:50;;;;;;;6.43;3.00;;;20.30;44.40;;;;;;6125184;23;20301;-72
2022/03/28 12:23:19;;;;;;;6.57;3.63;;;20.40;45.00;;;;;;6107704;23;20033;-72
2022/03/28 12:25:49;;;;;;;6.53;3.53;;;20.40;45.80;;;;;;6106873;23;20033;-72
2022/03/28 12:28:38;;;;;;;6.35;2.85;;;20.50;45.40;;;;;;6129552;23;20032;-73
2022/03/28 12:31:08;;;;;;;8.07;2.90;;;20.60;44.80;;;;;;6109085;23;20046;-71
2022/03/28 12:33:38;;;;;;;9.63;2.85;;;20.50;45.50;;;;;;6108261;23;20121;-73
2022/03/28 12:36:19;;;;;;;4.25;2.80;;;20.50;45.40;;;;;;6129173;23;20022;-75
2022/03/28 12:38:56;;;;;;;5.80;3.40;;;20.70;45.40;;;;;;6107347;23;20728;-71
2022/03/28 12:41:23;;;;;;;8.13;3.00;;;20.80;44.80;;;;;;6128946;23;20037;-71
2022/03/28 12:43:52;;;;;;;9.23;3.80;;;20.90;45.60;;;;;;6110614;23;20057;-72
2022/03/28 12:46:22;;;;;;;6.70;3.65;;;20.80;45.30;;;;;;6135422;23;20025;-73
2022/03/28 12:48:51;;;;;;;9.80;3.40;;;20.60;45.20;;;;;;6128375;23;20032;-71
2022/03/28 12:51:27;;;;;;;7.97;3.00;;;20.70;45.50;;;;;;6134526;23;20022;-72
2022/03/28 12:54:15;;;;;;;5.70;3.20;;;20.70;45.30;;;;;;6134584;23;20018;-72
2022/03/28 12:56:49;;;;;;;6.82;3.45;;;20.80;45.60;;;;;;6108929;23;20073;-72
2022/03/28 12:59:21;;;;;;;7.88;3.63;;;20.90;44.80;;;;;;6129575;23;20521;-73